createdAt,value
2023-03-13T00:00:03.167Z,76
2023-03-13T00:01:02.758Z,77
2023-03-13T00:02:02.544Z,76
2023-03-13T00:03:02.773Z,77
2023-03-13T00:04:02.973Z,76
2023-03-13T00:05:02.787Z,76
2023-03-13T00:06:02.676Z,76
2023-03-13T00:07:03.263Z,76
2023-03-13T00:08:02.650Z,76
2023-03-13T00:09:03.085Z,76
2023-03-13T00:10:02.697Z,76
2023-03-13T00:11:02.922Z,76
2023-03-13T00:12:02.341Z,76
2023-03-13T00:13:01.937Z,76
2023-03-13T00:14:01.976Z,76
2023-03-13T00:15:02.058Z,76
2023-03-13T00:16:02.378Z,77
2023-03-13T00:17:02.896Z,76
2023-03-13T00:18:02.600Z,76
2023-03-13T00:19:02.662Z,76
2023-03-13T00:20:02.335Z,76
2023-03-13T00:21:02.341Z,77
2023-03-13T00:22:02.737Z,77
2023-03-13T00:23:03.235Z,76
2023-03-13T00:24:02.930Z,76
2023-03-13T00:25:03.249Z,76
2023-03-13T00:26:03.212Z,76
2023-03-13T00:27:02.166Z,76
2023-03-13T00:28:02.533Z,76
2023-03-13T00:29:02.114Z,77
2023-03-13T00:30:02.722Z,76
2023-03-13T00:31:02.533Z,76
2023-03-13T00:32:02.758Z,76
2023-03-13T00:33:03.168Z,77
2023-03-13T00:34:03.008Z,76
2023-03-13T00:35:02.902Z,76
2023-03-13T00:36:02.767Z,76
2023-03-13T00:37:02.821Z,76
2023-03-13T00:38:02.556Z,76
2023-03-13T00:39:02.307Z,76
2023-03-13T00:40:02.785Z,76
2023-03-13T00:41:02.412Z,76
2023-03-13T00:42:02.914Z,76
2023-03-13T00:43:02.718Z,76
2023-03-13T00:44:03.027Z,76
2023-03-13T00:45:02.734Z,76
2023-03-13T00:46:02.784Z,76
2023-03-13T00:47:03.200Z,76
2023-03-13T00:48:03.280Z,76
2023-03-13T00:49:02.849Z,76
2023-03-13T00:50:02.898Z,76
2023-03-13T00:51:03.205Z,76
2023-03-13T00:52:02.154Z,77
2023-03-13T00:53:02.138Z,77
2023-03-13T00:54:02.012Z,77
2023-03-13T00:55:02.398Z,77
2023-03-13T00:56:02.135Z,77
2023-03-13T00:57:02.652Z,77
2023-03-13T00:58:02.370Z,77
2023-03-13T00:59:02.644Z,78
2023-03-13T01:00:02.965Z,77
2023-03-13T01:01:02.334Z,77
2023-03-13T01:02:02.522Z,78
2023-03-13T01:03:02.326Z,78
2023-03-13T01:04:01.988Z,78
2023-03-13T01:05:02.237Z,78
2023-03-13T01:06:02.226Z,78
2023-03-13T01:07:02.979Z,78
2023-03-13T01:08:02.947Z,78
2023-03-13T01:09:02.417Z,78
2023-03-13T01:10:02.886Z,78
2023-03-13T01:11:02.826Z,78
2023-03-13T01:12:02.837Z,78
2023-03-13T01:13:03.335Z,78
2023-03-13T01:14:02.939Z,78
2023-03-13T01:15:02.717Z,79
2023-03-13T01:16:02.752Z,78
2023-03-13T01:17:02.003Z,79
2023-03-13T01:18:02.029Z,79
2023-03-13T01:19:02.215Z,79
2023-03-13T01:20:02.549Z,79
2023-03-13T01:21:02.279Z,79
2023-03-13T01:22:02.394Z,79
2023-03-13T01:23:02.690Z,79
2023-03-13T01:24:03.051Z,79
2023-03-13T01:25:02.518Z,79
2023-03-13T01:26:02.477Z,79
2023-03-13T01:27:02.949Z,79
2023-03-13T01:28:03.151Z,79
2023-03-13T01:29:02.967Z,79
2023-03-13T01:30:03.201Z,79
2023-03-13T01:31:02.684Z,79
2023-03-13T01:32:01.974Z,79
2023-03-13T01:33:02.070Z,79
2023-03-13T01:34:02.055Z,80
2023-03-13T01:35:01.996Z,80
2023-03-13T01:36:02.497Z,80
2023-03-13T01:37:02.223Z,80
2023-03-13T01:38:02.186Z,80
2023-03-13T01:39:02.041Z,79
2023-03-13T01:40:02.173Z,79
2023-03-13T01:41:02.005Z,79
2023-03-13T01:42:02.995Z,79
2023-03-13T01:43:02.574Z,79
2023-03-13T01:44:03.233Z,79
2023-03-13T01:45:03.098Z,79
2023-03-13T01:46:02.960Z,79
2023-03-13T01:47:02.043Z,79
2023-03-13T01:48:02.140Z,79
2023-03-13T01:49:02.048Z,79
2023-03-13T01:50:02.218Z,79
2023-03-13T01:51:02.438Z,79
2023-03-13T01:52:02.585Z,79
2023-03-13T01:53:02.460Z,79
2023-03-13T01:54:03.122Z,79
2023-03-13T01:55:02.649Z,79
2023-03-13T01:56:02.900Z,79
2023-03-13T01:57:01.857Z,79
2023-03-13T01:58:01.917Z,79
2023-03-13T01:59:02.372Z,79
2023-03-13T02:00:02.431Z,79
2023-03-13T02:01:02.009Z,79
2023-03-13T02:02:03.248Z,79
2023-03-13T02:03:03.388Z,79
2023-03-13T02:04:03.474Z,79
2023-03-13T02:05:03.628Z,79
2023-03-13T02:06:02.958Z,79
2023-03-13T02:07:03.079Z,79
2023-03-13T02:08:03.617Z,79
2023-03-13T02:09:03.512Z,79
2023-03-13T02:10:03.123Z,79
2023-03-13T02:11:03.561Z,79
2023-03-13T02:12:02.867Z,79
2023-03-13T02:13:02.728Z,79
2023-03-13T02:14:02.811Z,79
2023-03-13T02:15:02.902Z,79
2023-03-13T02:16:02.609Z,79
2023-03-13T02:17:02.830Z,79
2023-03-13T02:18:02.789Z,79
2023-03-13T02:19:02.948Z,79
2023-03-13T02:20:02.458Z,79
2023-03-13T02:21:02.985Z,79
2023-03-13T02:22:02.657Z,79
2023-03-13T02:23:03.061Z,79
2023-03-13T02:24:02.859Z,79
2023-03-13T02:25:02.946Z,79
2023-03-13T02:26:02.630Z,79
2023-03-13T02:27:03.022Z,79
2023-03-13T02:28:02.506Z,79
2023-03-13T02:29:02.975Z,79
2023-03-13T02:30:02.728Z,79
2023-03-13T02:31:03.185Z,79
2023-03-13T02:32:03.176Z,79
2023-03-13T02:33:03.490Z,79
2023-03-13T02:34:02.895Z,79
2023-03-13T02:35:03.285Z,79
2023-03-13T02:36:03.014Z,79
2023-03-13T02:37:03.562Z,79
2023-03-13T02:38:03.005Z,79
2023-03-13T02:39:03.060Z,79
2023-03-13T02:40:03.483Z,79
2023-03-13T02:41:03.062Z,79
2023-03-13T02:42:03.159Z,79
2023-03-13T02:43:03.203Z,79
2023-03-13T02:44:02.717Z,79
2023-03-13T02:45:02.810Z,79
2023-03-13T02:46:03.288Z,79
2023-03-13T02:47:03.839Z,79
2023-03-13T02:48:03.500Z,79
2023-03-13T02:49:03.293Z,79
2023-03-13T02:50:03.346Z,79
2023-03-13T02:51:03.417Z,79
2023-03-13T02:52:02.615Z,79
2023-03-13T02:53:02.445Z,80
2023-03-13T02:54:02.862Z,80
2023-03-13T02:55:02.763Z,81
2023-03-13T02:56:02.590Z,81
2023-03-13T02:57:03.005Z,81
2023-03-13T02:58:02.851Z,81
2023-03-13T02:59:02.818Z,82
2023-03-13T03:00:02.802Z,82
2023-03-13T03:01:02.559Z,82
2023-03-13T03:02:02.001Z,83
2023-03-13T03:03:02.226Z,83
2023-03-13T03:04:02.234Z,83
2023-03-13T03:05:02.312Z,85
2023-03-13T03:06:02.009Z,85
2023-03-13T03:07:02.666Z,85
2023-03-13T03:08:02.923Z,85
2023-03-13T03:09:02.398Z,85
2023-03-13T03:10:02.967Z,85
2023-03-13T03:11:02.970Z,84
2023-03-13T03:12:03.122Z,84
2023-03-13T03:13:02.506Z,84
2023-03-13T03:14:02.768Z,84
2023-03-13T03:15:02.480Z,84
2023-03-13T03:16:02.757Z,84
2023-03-13T03:17:03.077Z,84
2023-03-13T03:18:02.924Z,84
2023-03-13T03:19:03.237Z,84
2023-03-13T03:20:03.067Z,84
2023-03-13T03:21:02.982Z,84
2023-03-13T03:22:01.687Z,84
2023-03-13T03:23:02.286Z,84
2023-03-13T03:24:01.758Z,83
2023-03-13T03:25:02.168Z,84
2023-03-13T03:26:01.962Z,83
2023-03-13T03:27:01.877Z,84
2023-03-13T03:28:01.947Z,83
2023-03-13T03:29:02.220Z,83
2023-03-13T03:30:02.160Z,83
2023-03-13T03:31:02.128Z,83
2023-03-13T03:32:02.633Z,83
2023-03-13T03:33:02.619Z,83
2023-03-13T03:34:02.865Z,83
2023-03-13T03:35:02.676Z,83
2023-03-13T03:36:03.066Z,83
2023-03-13T03:37:02.194Z,83
2023-03-13T03:38:02.670Z,83
2023-03-13T03:39:02.702Z,83
2023-03-13T03:40:02.719Z,83
2023-03-13T03:41:02.250Z,83
2023-03-13T03:42:02.327Z,83
2023-03-13T03:43:02.787Z,83
2023-03-13T03:44:02.552Z,83
2023-03-13T03:45:02.686Z,83
2023-03-13T03:46:02.310Z,83
2023-03-13T03:47:02.721Z,83
2023-03-13T03:48:02.668Z,83
2023-03-13T03:49:02.847Z,83
2023-03-13T03:50:02.570Z,83
2023-03-13T03:51:03.006Z,83
2023-03-13T03:52:01.801Z,83
2023-03-13T03:53:02.029Z,83
2023-03-13T03:54:01.776Z,83
2023-03-13T03:55:01.619Z,83
2023-03-13T03:56:01.723Z,83
2023-03-13T03:57:02.066Z,83
2023-03-13T03:58:02.379Z,83
2023-03-13T03:59:02.054Z,83
2023-03-13T04:00:02.602Z,83
2023-03-13T04:01:02.179Z,83
2023-03-13T04:02:02.644Z,83
2023-03-13T04:03:02.975Z,83
2023-03-13T04:04:02.527Z,83
2023-03-13T04:05:02.997Z,83
2023-03-13T04:06:03.114Z,83
2023-03-13T04:07:03.156Z,83
2023-03-13T04:08:03.567Z,83
2023-03-13T04:09:03.636Z,83
2023-03-13T04:10:03.123Z,83
2023-03-13T04:11:03.095Z,83
2023-03-13T04:12:02.597Z,83
2023-03-13T04:13:02.884Z,83
2023-03-13T04:14:02.416Z,83
2023-03-13T04:15:02.885Z,83
2023-03-13T04:16:02.457Z,83
2023-03-13T04:17:02.965Z,83
2023-03-13T04:18:02.985Z,83
2023-03-13T04:19:02.621Z,83
2023-03-13T04:20:03.034Z,83
2023-03-13T04:21:02.715Z,82
2023-03-13T04:22:03.098Z,83
2023-03-13T04:23:02.846Z,82
2023-03-13T04:24:03.234Z,82
2023-03-13T04:25:03.146Z,82
2023-03-13T04:26:03.402Z,82
2023-03-13T04:27:03.551Z,82
2023-03-13T04:28:04.153Z,82
2023-03-13T04:29:03.568Z,82
2023-03-13T04:30:03.871Z,82
2023-03-13T04:31:03.696Z,82
2023-03-13T04:32:02.704Z,82
2023-03-13T04:33:02.454Z,82
2023-03-13T04:34:02.852Z,82
2023-03-13T04:35:02.617Z,82
2023-03-13T04:36:02.456Z,82
2023-03-13T04:37:02.897Z,82
2023-03-13T04:38:02.615Z,82
2023-03-13T04:39:02.910Z,82
2023-03-13T04:40:03.200Z,82
2023-03-13T04:41:02.637Z,82
2023-03-13T04:42:02.986Z,82
2023-03-13T04:43:02.709Z,82
2023-03-13T04:44:03.000Z,82
2023-03-13T04:45:03.379Z,82
2023-03-13T04:46:02.930Z,82
2023-03-13T04:47:03.233Z,82
2023-03-13T04:48:03.054Z,82
2023-03-13T04:49:03.442Z,82
2023-03-13T04:50:03.216Z,82
2023-03-13T04:51:03.503Z,82
2023-03-13T04:52:02.875Z,82
2023-03-13T04:53:02.662Z,82
2023-03-13T04:54:02.946Z,82
2023-03-13T04:55:02.681Z,82
2023-03-13T04:56:03.153Z,82
2023-03-13T04:57:03.352Z,82
2023-03-13T04:58:03.075Z,82
2023-03-13T04:59:03.367Z,82
2023-03-13T05:00:03.130Z,82
2023-03-13T05:01:03.097Z,82
2023-03-13T05:02:02.547Z,82
2023-03-13T05:03:02.301Z,82
2023-03-13T05:04:02.774Z,82
2023-03-13T05:05:02.843Z,82
2023-03-13T05:06:02.336Z,82
2023-03-13T05:07:02.809Z,82
2023-03-13T05:08:03.016Z,82
2023-03-13T05:09:02.528Z,82
2023-03-13T05:10:02.822Z,82
2023-03-13T05:11:02.539Z,82
2023-03-13T05:12:02.967Z,82
2023-03-13T05:13:02.747Z,82
2023-03-13T05:14:03.200Z,82
2023-03-13T05:15:02.700Z,82
2023-03-13T05:16:03.267Z,82
2023-03-13T05:17:03.254Z,82
2023-03-13T05:18:03.052Z,82
2023-03-13T05:19:03.420Z,82
2023-03-13T05:20:03.071Z,82
2023-03-13T05:21:02.855Z,82
2023-03-13T05:22:02.406Z,82
2023-03-13T05:23:02.100Z,82
2023-03-13T05:24:02.441Z,82
2023-03-13T05:25:02.216Z,82
2023-03-13T05:26:01.938Z,82
2023-03-13T05:27:03.015Z,82
2023-03-13T05:28:02.819Z,82
2023-03-13T05:29:03.360Z,82
2023-03-13T05:30:02.878Z,82
2023-03-13T05:31:02.689Z,82
2023-03-13T05:32:03.009Z,82
2023-03-13T05:33:02.808Z,82
2023-03-13T05:34:02.616Z,82
2023-03-13T05:35:03.184Z,82
2023-03-13T05:36:02.855Z,82
2023-03-13T05:37:03.277Z,82
2023-03-13T05:38:02.847Z,82
2023-03-13T05:39:03.287Z,82
2023-03-13T05:40:03.038Z,82
2023-03-13T05:41:02.869Z,82
2023-03-13T05:42:02.961Z,82
2023-03-13T05:43:02.635Z,82
2023-03-13T05:44:02.964Z,82
2023-03-13T05:45:02.825Z,82
2023-03-13T05:46:02.671Z,82
2023-03-13T05:47:04.181Z,82
2023-03-13T05:48:02.955Z,82
2023-03-13T05:49:03.339Z,82
2023-03-13T05:50:03.153Z,82
2023-03-13T05:51:02.987Z,82
2023-03-13T05:52:02.535Z,82
2023-03-13T05:53:02.061Z,82
2023-03-13T05:54:02.011Z,82
2023-03-13T05:55:02.512Z,82
2023-03-13T05:56:02.071Z,82
2023-03-13T05:57:02.509Z,82
2023-03-13T05:58:02.452Z,82
2023-03-13T05:59:01.971Z,82
2023-03-13T06:00:02.164Z,82
2023-03-13T06:01:01.997Z,82
2023-03-13T06:02:03.074Z,82
2023-03-13T06:03:02.832Z,82
2023-03-13T06:04:02.859Z,82
2023-03-13T06:05:02.820Z,82
2023-03-13T06:06:02.819Z,82
2023-03-13T06:07:01.849Z,82
2023-03-13T06:08:02.291Z,82
2023-03-13T06:09:02.281Z,82
2023-03-13T06:10:01.817Z,82
2023-03-13T06:11:01.699Z,82
2023-03-13T06:12:02.215Z,82
2023-03-13T06:13:17.222Z,82
2023-03-13T06:14:02.616Z,82
2023-03-13T06:15:02.503Z,82
2023-03-13T06:16:02.615Z,82
2023-03-13T06:17:01.710Z,82
2023-03-13T06:18:01.632Z,82
2023-03-13T06:19:02.121Z,82
2023-03-13T06:20:01.879Z,82
2023-03-13T06:21:01.724Z,82
2023-03-13T06:22:02.249Z,82
2023-03-13T06:23:02.811Z,82
2023-03-13T06:24:02.372Z,82
2023-03-13T06:25:02.243Z,82
2023-03-13T06:26:02.832Z,82
2023-03-13T06:27:02.440Z,82
2023-03-13T06:28:02.897Z,82
2023-03-13T06:29:02.873Z,82
2023-03-13T06:30:02.893Z,82
2023-03-13T06:31:02.732Z,82
2023-03-13T06:32:02.753Z,82
2023-03-13T06:33:02.732Z,82
2023-03-13T06:34:02.711Z,82
2023-03-13T06:35:02.752Z,82
2023-03-13T06:36:02.701Z,82
2023-03-13T06:37:02.574Z,82
2023-03-13T06:38:02.520Z,81
2023-03-13T06:39:02.813Z,82
2023-03-13T06:40:02.729Z,81
2023-03-13T06:41:02.561Z,81
2023-03-13T06:42:02.068Z,81
2023-03-13T06:43:02.636Z,82
2023-03-13T06:44:02.302Z,82
2023-03-13T06:45:02.433Z,81
2023-03-13T06:46:02.234Z,81
2023-03-13T06:47:01.889Z,81
2023-03-13T06:48:01.798Z,81
2023-03-13T06:49:01.640Z,81
2023-03-13T06:50:02.201Z,81
2023-03-13T06:51:01.748Z,81
2023-03-13T06:52:02.338Z,81
2023-03-13T06:53:02.132Z,81
2023-03-13T06:54:02.710Z,81
2023-03-13T06:55:02.340Z,81
2023-03-13T06:56:02.169Z,81
2023-03-13T06:57:02.634Z,81
2023-03-13T06:58:02.636Z,81
2023-03-13T06:59:03.067Z,81
2023-03-13T07:00:02.640Z,81
2023-03-13T07:01:02.624Z,81
2023-03-13T07:02:03.097Z,81
2023-03-13T07:03:02.942Z,81
2023-03-13T07:04:03.600Z,81
2023-03-13T07:05:03.293Z,81
2023-03-13T07:06:03.086Z,81
2023-03-13T07:07:02.660Z,81
2023-03-13T07:08:02.990Z,81
2023-03-13T07:09:02.873Z,81
2023-03-13T07:10:02.681Z,81
2023-03-13T07:11:02.642Z,81
2023-03-13T07:12:03.304Z,81
2023-03-13T07:13:03.155Z,81
2023-03-13T07:14:15.812Z,81
2023-03-13T07:15:03.559Z,81
2023-03-13T07:16:03.205Z,81
2023-03-13T07:17:02.714Z,81
2023-03-13T07:18:02.545Z,81
2023-03-13T07:19:02.644Z,81
2023-03-13T07:20:03.093Z,81
2023-03-13T07:21:02.883Z,81
2023-03-13T07:22:03.338Z,81
2023-03-13T07:23:03.151Z,81
2023-03-13T07:24:03.709Z,81
2023-03-13T07:25:03.153Z,81
2023-03-13T07:26:03.372Z,81
2023-03-13T07:27:07.585Z,81
2023-03-13T07:28:02.708Z,81
2023-03-13T07:29:02.551Z,81
2023-03-13T07:30:02.732Z,81
2023-03-13T07:31:02.972Z,81
2023-03-13T07:32:03.654Z,81
2023-03-13T07:33:03.436Z,81
2023-03-13T07:34:03.113Z,81
2023-03-13T07:35:03.598Z,81
2023-03-13T07:36:03.306Z,81
2023-03-13T07:37:02.781Z,81
2023-03-13T07:38:02.674Z,81
2023-03-13T07:39:02.562Z,81
2023-03-13T07:40:02.469Z,81
2023-03-13T07:41:02.885Z,81
2023-03-13T07:42:03.216Z,81
2023-03-13T07:43:03.394Z,81
2023-03-13T07:44:03.063Z,81
2023-03-13T07:45:02.806Z,81
2023-03-13T07:46:03.541Z,81
2023-03-13T07:47:03.241Z,81
2023-03-13T07:48:02.989Z,81
2023-03-13T07:49:03.448Z,81
2023-03-13T07:50:03.083Z,81
2023-03-13T07:51:02.971Z,81
2023-03-13T07:52:03.534Z,81
2023-03-13T07:53:03.482Z,81
2023-03-13T07:54:03.565Z,81
2023-03-13T07:55:03.674Z,81
2023-03-13T07:56:03.329Z,81
2023-03-13T07:57:03.006Z,81
2023-03-13T07:58:02.993Z,81
2023-03-13T07:59:02.603Z,81
2023-03-13T08:00:03.259Z,81
2023-03-13T08:01:02.922Z,81
2023-03-13T08:02:02.580Z,81
2023-03-13T08:03:02.324Z,81
2023-03-13T08:04:02.537Z,81
2023-03-13T08:05:02.353Z,81
2023-03-13T08:06:02.386Z,81
2023-03-13T08:07:02.877Z,81
2023-03-13T08:08:02.647Z,81
2023-03-13T08:09:02.964Z,81
2023-03-13T08:10:02.938Z,81
2023-03-13T08:11:02.636Z,81
2023-03-13T08:12:02.608Z,81
2023-03-13T08:13:02.202Z,81
2023-03-13T08:14:02.095Z,81
2023-03-13T08:15:02.467Z,81
2023-03-13T08:16:02.232Z,81
2023-03-13T08:17:02.769Z,81
2023-03-13T08:18:02.804Z,81
2023-03-13T08:19:02.419Z,81
2023-03-13T08:20:02.417Z,81
2023-03-13T08:21:02.585Z,81
2023-03-13T08:22:03.215Z,81
2023-03-13T08:23:02.961Z,81
2023-03-13T08:24:02.872Z,81
2023-03-13T08:25:02.757Z,81
2023-03-13T08:26:03.047Z,81
2023-03-13T08:27:03.377Z,81
2023-03-13T08:28:03.491Z,81
2023-03-13T08:29:03.126Z,81
2023-03-13T08:30:03.509Z,81
2023-03-13T08:31:02.878Z,80
2023-03-13T08:32:03.157Z,81
2023-03-13T08:33:03.089Z,80
2023-03-13T08:34:02.766Z,81
2023-03-13T08:35:02.769Z,81
2023-03-13T08:36:02.650Z,80
2023-03-13T08:37:02.907Z,81
2023-03-13T08:38:02.833Z,81
2023-03-13T08:39:02.630Z,80
2023-03-13T08:40:02.492Z,81
2023-03-13T08:41:02.409Z,80
2023-03-13T08:42:03.332Z,80
2023-03-13T08:43:03.129Z,80
2023-03-13T08:44:03.457Z,80
2023-03-13T08:45:03.350Z,80
2023-03-13T08:46:03.244Z,80
2023-03-13T08:47:02.298Z,80
2023-03-13T08:48:02.479Z,80
2023-03-13T08:49:02.432Z,80
2023-03-13T08:50:02.935Z,80
2023-03-13T08:51:02.370Z,80
2023-03-13T08:52:02.932Z,80
2023-03-13T08:53:03.486Z,80
2023-03-13T08:54:03.385Z,80
2023-03-13T08:55:03.012Z,80
2023-03-13T08:56:03.222Z,80
2023-03-13T08:57:03.613Z,80
2023-03-13T08:58:03.276Z,80
2023-03-13T08:59:03.064Z,80
2023-03-13T09:00:03.629Z,80
2023-03-13T09:01:03.233Z,80
2023-03-13T09:02:03.134Z,80
2023-03-13T09:03:03.539Z,80
2023-03-13T09:04:04.749Z,80
2023-03-13T09:05:03.261Z,80
2023-03-13T09:06:03.617Z,80
2023-03-13T09:07:03.257Z,80
2023-03-13T09:08:03.355Z,80
2023-03-13T09:09:03.860Z,80
2023-03-13T09:10:03.900Z,81
2023-03-13T09:11:03.316Z,80
2023-03-13T09:12:02.832Z,80
2023-03-13T09:13:03.336Z,80
2023-03-13T09:14:02.711Z,80
2023-03-13T09:15:02.909Z,80
2023-03-13T09:16:02.892Z,80
2023-03-13T09:17:03.333Z,80
2023-03-13T09:18:03.309Z,80
2023-03-13T09:19:03.515Z,80
2023-03-13T09:20:03.475Z,80
2023-03-13T09:21:03.752Z,80
2023-03-13T09:22:02.585Z,80
2023-03-13T09:23:03.019Z,80
2023-03-13T09:24:02.536Z,80
2023-03-13T09:25:02.734Z,80
2023-03-13T09:26:02.946Z,80
2023-03-13T09:27:02.841Z,80
2023-03-13T09:28:02.712Z,80
2023-03-13T09:29:03.121Z,80
2023-03-13T09:30:02.721Z,80
2023-03-13T09:31:03.065Z,80
2023-03-13T09:32:02.827Z,80
2023-03-13T09:33:02.919Z,80
2023-03-13T09:34:02.803Z,80
2023-03-13T09:35:03.157Z,80
2023-03-13T09:36:03.303Z,80
2023-03-13T09:37:03.109Z,80
2023-03-13T09:38:03.587Z,80
2023-03-13T09:39:03.058Z,80
2023-03-13T09:40:03.559Z,80
2023-03-13T09:41:06.316Z,80
2023-03-13T09:42:03.351Z,80
2023-03-13T09:43:03.424Z,80
2023-03-13T09:44:03.850Z,80
2023-03-13T09:45:03.475Z,80
2023-03-13T09:46:03.276Z,80
2023-03-13T09:47:03.099Z,80
2023-03-13T09:48:03.308Z,80
2023-03-13T09:49:03.393Z,80
2023-03-13T09:50:03.281Z,80
2023-03-13T09:51:03.154Z,80
2023-03-13T09:52:03.649Z,80
2023-03-13T09:53:03.365Z,80
2023-03-13T09:54:03.287Z,80
2023-03-13T09:55:03.358Z,80
2023-03-13T09:56:03.817Z,80
2023-03-13T09:57:03.618Z,80
2023-03-13T09:58:03.677Z,80
2023-03-13T09:59:03.674Z,80
2023-03-13T10:00:03.820Z,80
2023-03-13T10:01:03.735Z,80
2023-03-13T10:02:02.269Z,80
2023-03-13T10:03:02.161Z,80
2023-03-13T10:04:02.088Z,80
2023-03-13T10:05:01.949Z,80
2023-03-13T10:06:02.049Z,80
2023-03-13T10:07:02.513Z,80
2023-03-13T10:08:02.358Z,80
2023-03-13T10:09:02.754Z,80
2023-03-13T10:10:02.372Z,80
2023-03-13T10:11:02.220Z,80
2023-03-13T10:12:02.757Z,80
2023-03-13T10:13:02.614Z,80
2023-03-13T10:14:02.491Z,80
2023-03-13T10:15:03.153Z,80
2023-03-13T10:16:03.008Z,80
2023-03-13T10:17:02.817Z,80
2023-03-13T10:18:02.706Z,80
2023-03-13T10:19:02.479Z,80
2023-03-13T10:20:02.953Z,80
2023-03-13T10:21:02.632Z,80
2023-03-13T10:22:02.117Z,80
2023-03-13T10:23:01.815Z,80
2023-03-13T10:24:02.341Z,80
2023-03-13T10:25:01.743Z,80
2023-03-13T10:26:02.085Z,80
2023-03-13T10:27:02.480Z,80
2023-03-13T10:28:02.348Z,80
2023-03-13T10:29:02.129Z,80
2023-03-13T10:30:02.659Z,80
2023-03-13T10:31:02.519Z,80
2023-03-13T10:32:02.837Z,80
2023-03-13T10:33:02.695Z,80
2023-03-13T10:34:02.533Z,80
2023-03-13T10:35:02.649Z,80
2023-03-13T10:36:02.956Z,80
2023-03-13T10:37:02.371Z,80
2023-03-13T10:38:01.990Z,80
2023-03-13T10:39:02.192Z,80
2023-03-13T10:40:02.191Z,80
2023-03-13T10:41:01.954Z,80
2023-03-13T10:42:02.473Z,80
2023-03-13T10:43:02.333Z,80
2023-03-13T10:44:02.211Z,80
2023-03-13T10:45:02.279Z,80
2023-03-13T10:46:02.225Z,80
2023-03-13T10:47:02.826Z,80
2023-03-13T10:48:02.505Z,80
2023-03-13T10:49:02.533Z,80
2023-03-13T10:50:02.453Z,80
2023-03-13T10:51:02.562Z,80
2023-03-13T10:52:02.721Z,80
2023-03-13T10:53:03.135Z,80
2023-03-13T10:54:02.736Z,80
2023-03-13T10:55:02.541Z,80
2023-03-13T10:56:02.391Z,80
2023-03-13T10:57:02.827Z,80
2023-03-13T10:58:02.634Z,80
2023-03-13T10:59:02.825Z,80
2023-03-13T11:00:04.237Z,80
2023-03-13T11:01:02.577Z,80
2023-03-13T11:02:03.144Z,80
2023-03-13T11:03:03.319Z,80
2023-03-13T11:04:03.061Z,80
2023-03-13T11:05:02.789Z,80
2023-03-13T11:06:02.636Z,80
2023-03-13T11:07:03.552Z,80
2023-03-13T11:08:03.412Z,80
2023-03-13T11:09:03.209Z,80
2023-03-13T11:10:03.564Z,80
2023-03-13T11:11:03.412Z,80
2023-03-13T11:12:02.977Z,80
2023-03-13T11:13:02.634Z,80
2023-03-13T11:14:02.486Z,80
2023-03-13T11:15:03.072Z,80
2023-03-13T11:16:02.678Z,80
2023-03-13T11:17:03.180Z,80
2023-03-13T11:18:03.180Z,81
2023-03-13T11:19:02.791Z,81
2023-03-13T11:20:02.740Z,81
2023-03-13T11:21:15.934Z,81
2023-03-13T11:22:03.323Z,81
2023-03-13T11:23:02.917Z,81
2023-03-13T11:24:03.130Z,81
2023-03-13T11:25:03.289Z,81
2023-03-13T11:26:02.992Z,81
2023-03-13T11:27:05.124Z,81
2023-03-13T11:28:03.436Z,81
2023-03-13T11:29:03.235Z,81
2023-03-13T11:30:03.155Z,81
2023-03-13T11:31:03.605Z,81
2023-03-13T11:32:04.799Z,81
2023-03-13T11:33:03.444Z,81
2023-03-13T11:34:03.230Z,81
2023-03-13T11:35:03.690Z,81
2023-03-13T11:36:03.346Z,81
2023-03-13T11:37:03.926Z,81
2023-03-13T11:38:03.824Z,81
2023-03-13T11:39:03.566Z,80
2023-03-13T11:40:03.701Z,80
2023-03-13T11:41:04.093Z,80
2023-03-13T11:42:03.323Z,80
2023-03-13T11:43:14.268Z,80
2023-03-13T11:44:02.796Z,80
2023-03-13T11:45:03.237Z,80
2023-03-13T11:46:03.272Z,80
2023-03-13T11:47:03.622Z,80
2023-03-13T11:48:03.175Z,80
2023-03-13T11:49:03.055Z,80
2023-03-13T11:50:03.125Z,80
2023-03-13T11:51:03.220Z,80
2023-03-13T11:52:03.829Z,80
2023-03-13T11:53:03.553Z,80
2023-03-13T11:54:05.239Z,80
2023-03-13T11:55:03.392Z,80
2023-03-13T11:56:03.796Z,80
2023-03-13T11:57:03.254Z,80
2023-03-13T11:58:03.045Z,80
2023-03-13T11:59:02.972Z,80
2023-03-13T12:00:02.849Z,80
2023-03-13T12:01:03.371Z,80
2023-03-13T12:02:01.952Z,80
2023-03-13T12:03:02.239Z,80
2023-03-13T12:04:02.125Z,80
2023-03-13T12:05:02.081Z,80
2023-03-13T12:06:02.557Z,80
2023-03-13T12:07:04.612Z,80
2023-03-13T12:08:02.701Z,80
2023-03-13T12:09:02.437Z,80
2023-03-13T12:10:02.347Z,80
2023-03-13T12:11:02.827Z,79
2023-03-13T12:12:02.638Z,79
2023-03-13T12:13:02.251Z,80
2023-03-13T12:14:01.895Z,79
2023-03-13T12:15:01.835Z,79
2023-03-13T12:16:01.768Z,79
2023-03-13T12:17:01.660Z,79
2023-03-13T12:18:02.171Z,79
2023-03-13T12:19:02.064Z,79
2023-03-13T12:20:02.109Z,79
2023-03-13T12:21:01.971Z,79
2023-03-13T12:22:02.135Z,79
2023-03-13T12:23:02.599Z,79
2023-03-13T12:24:02.675Z,79
2023-03-13T12:25:04.474Z,79
2023-03-13T12:26:02.380Z,79
2023-03-13T12:27:02.272Z,79
2023-03-13T12:28:02.906Z,79
2023-03-13T12:29:02.558Z,79
2023-03-13T12:30:02.476Z,79
2023-03-13T12:31:03.090Z,79
2023-03-13T12:32:02.801Z,79
2023-03-13T12:33:02.427Z,79
2023-03-13T12:34:02.380Z,79
2023-03-13T12:35:02.256Z,79
2023-03-13T12:36:02.141Z,79
2023-03-13T12:37:02.624Z,79
2023-03-13T12:38:02.172Z,79
2023-03-13T12:39:02.113Z,79
2023-03-13T12:40:02.627Z,79
2023-03-13T12:41:02.450Z,79
2023-03-13T12:42:02.564Z,79
2023-03-13T12:43:02.326Z,79
2023-03-13T12:44:09.169Z,79
2023-03-13T12:45:02.749Z,79
2023-03-13T12:46:02.902Z,79
2023-03-13T12:47:02.509Z,79
2023-03-13T12:48:02.204Z,79
2023-03-13T12:49:01.921Z,79
2023-03-13T12:50:02.397Z,79
2023-03-13T12:51:02.347Z,79
2023-03-13T12:52:02.258Z,79
2023-03-13T12:53:02.780Z,79
2023-03-13T12:54:02.714Z,79
2023-03-13T12:55:02.909Z,79
2023-03-13T12:56:03.144Z,79
2023-03-13T12:57:02.871Z,79
2023-03-13T12:58:02.563Z,79
2023-03-13T12:59:02.559Z,79
2023-03-13T13:00:02.456Z,79
2023-03-13T13:01:02.436Z,79
2023-03-13T13:02:02.298Z,79
2023-03-13T13:03:02.940Z,79
2023-03-13T13:04:02.902Z,79
2023-03-13T13:05:02.710Z,79
2023-03-13T13:06:02.738Z,78
2023-03-13T13:07:03.028Z,79
2023-03-13T13:08:03.166Z,79
2023-03-13T13:09:03.160Z,79
2023-03-13T13:10:02.957Z,79
2023-03-13T13:11:02.996Z,79
2023-03-13T13:12:02.972Z,79
2023-03-13T13:13:02.641Z,79
2023-03-13T13:14:02.914Z,79
2023-03-13T13:15:02.549Z,79
2023-03-13T13:16:02.464Z,78
2023-03-13T13:17:02.341Z,78
2023-03-13T13:18:02.968Z,79
2023-03-13T13:19:02.915Z,78
2023-03-13T13:20:02.554Z,78
2023-03-13T13:21:03.162Z,78
2023-03-13T13:22:02.769Z,78
2023-03-13T13:23:03.410Z,78
2023-03-13T13:24:03.232Z,78
2023-03-13T13:25:03.291Z,78
2023-03-13T13:26:03.298Z,78
2023-03-13T13:27:03.262Z,78
2023-03-13T13:28:02.866Z,78
2023-03-13T13:29:03.092Z,78
2023-03-13T13:30:03.138Z,78
2023-03-13T13:31:02.697Z,78
2023-03-13T13:32:02.715Z,78
2023-03-13T13:33:03.357Z,78
2023-03-13T13:34:03.280Z,78
2023-03-13T13:35:03.335Z,78
2023-03-13T13:36:03.304Z,78
2023-03-13T13:37:03.195Z,78
2023-03-13T13:38:02.923Z,78
2023-03-13T13:39:02.441Z,78
2023-03-13T13:40:02.387Z,78
2023-03-13T13:41:02.698Z,78
2023-03-13T13:42:02.688Z,78
2023-03-13T13:43:03.234Z,78
2023-03-13T13:44:03.196Z,78
2023-03-13T13:45:02.858Z,78
2023-03-13T13:46:03.599Z,78
2023-03-13T13:47:03.313Z,78
2023-03-13T13:48:02.528Z,78
2023-03-13T13:49:02.810Z,78
2023-03-13T13:50:02.748Z,78
2023-03-13T13:51:02.483Z,78
2023-03-13T13:52:02.832Z,78
2023-03-13T13:53:03.483Z,78
2023-03-13T13:54:03.183Z,78
2023-03-13T13:55:02.861Z,78
2023-03-13T13:56:03.318Z,78
2023-03-13T13:57:03.198Z,78
2023-03-13T13:58:03.829Z,78
2023-03-13T13:59:03.333Z,78
2023-03-13T14:00:03.761Z,78
2023-03-13T14:01:03.582Z,78
2023-03-13T14:02:03.583Z,78
2023-03-13T14:03:01.791Z,78
2023-03-13T14:04:01.905Z,78
2023-03-13T14:05:01.930Z,78
2023-03-13T14:06:01.904Z,78
2023-03-13T14:07:01.721Z,78
2023-03-13T14:08:02.948Z,78
2023-03-13T14:09:02.542Z,78
2023-03-13T14:10:02.399Z,78
2023-03-13T14:11:02.787Z,78
2023-03-13T14:12:02.558Z,78
2023-03-13T14:13:01.831Z,78
2023-03-13T14:14:02.432Z,78
2023-03-13T14:15:02.003Z,78